Time;durP1;ratioP1;P1;durP2;ratioP2;P2;SDS_P1;SDS_P2;PMS_P1;PMS_P2;Temp;Humidity;BMP_temperature;BMP_pressure;BME280_temperature;BME280_humidity;BME280_pressure;Samples;Min_cycle;Max_cycle;Signal;HPM_P1;HPM_P2
2023/04/03 00:00:34;;;;;;;6.10;2.08;;;;;;;5.56;79.29;101842.03;8389527;28;20033;-52
2023/04/03 00:04:34;;;;;;;5.03;2.10;;;;;;;5.55;79.45;101839.44;8389353;28;20139;-53
2023/04/03 00:08:35;;;;;;;4.95;1.90;;;;;;;5.32;80.74;101831.63;8387334;28;20135;-51
2023/04/03 00:12:36;;;;;;;2.70;1.80;;;;;;;5.52;79.73;101836.91;8382510;28;20072;-53
2023/04/03 00:16:36;;;;;;;5.20;2.08;;;;;;;5.54;78.67;101832.31;8356502;28;20487;-53
2023/04/03 00:20:37;;;;;;;5.57;2.25;;;;;;;5.61;78.53;101839.09;8355150;28;20041;-53
2023/04/03 00:24:37;;;;;;;5.05;2.60;;;;;;;5.52;79.24;101839.56;8356526;28;20120;-53
2023/04/03 00:28:38;;;;;;;4.85;2.10;;;;;;;5.50;78.79;101830.72;8360244;28;20043;-52
2023/04/03 00:32:38;;;;;;;5.50;2.33;;;;;;;5.44;78.84;101836.41;8362069;28;20045;-53
2023/04/03 00:36:39;;;;;;;6.72;2.42;;;;;;;5.37;79.06;101834.97;8360901;28;20120;-54
2023/04/03 00:40:43;;;;;;;4.97;2.22;;;;;;;5.38;78.82;101828.66;8361291;28;20127;-52
2023/04/03 00:48:56;;;;;;;5.82;2.55;;;;;;;5.34;79.03;101835.13;8352442;27;20956;-53
2023/04/03 00:52:57;;;;;;;6.47;2.80;;;;;;;5.35;79.29;101832.38;8352308;28;20160;-53
2023/04/03 00:56:58;;;;;;;4.85;2.55;;;;;;;5.41;79.18;101839.22;8352208;28;20181;-53
2023/04/03 01:01:05;;;;;;;8.60;2.85;;;;;;;5.30;79.48;101836.19;8352041;28;20041;-54
2023/04/03 01:05:06;;;;;;;3.95;2.75;;;;;;;5.21;79.99;101833.97;8351378;28;20037;-53
2023/04/03 01:09:07;;;;;;;7.47;3.47;;;;;;;5.15;79.78;101834.25;8350539;28;20038;-52
2023/04/03 01:13:27;;;;;;;6.47;3.05;;;;;;;5.07;79.97;101836.44;8352058;28;20037;-54
2023/04/03 01:17:41;;;;;;;9.45;3.30;;;;;;;5.01;81.04;101828.72;8352167;28;20156;-54
2023/04/03 01:22:10;;;;;;;5.97;3.15;;;;;;;4.89;80.92;101826.59;8351051;28;20037;-54
2023/04/03 01:26:12;;;;;;;10.05;3.40;;;;;;;4.82;81.51;101826.00;8349625;28;20392;-52
2023/04/03 01:30:16;;;;;;;4.07;3.38;;;;;;;4.75;81.66;101823.69;8347112;28;20579;-54
2023/04/03 01:34:17;;;;;;;;;;;;;;;4.66;82.27;101833.03;8335875;28;20041;-53
2023/04/03 01:38:18;;;;;;;7.90;4.78;;;;;;;4.54;82.42;101830.09;8347537;28;19917;-52
2023/04/03 01:42:18;;;;;;;7.75;4.85;;;;;;;4.50;83.00;101828.47;8349145;28;20048;-53
2023/04/03 01:46:20;;;;;;;14.70;6.65;;;;;;;4.45;82.98;101830.50;8350534;28;20131;-55
2023/04/03 01:50:20;;;;;;;9.15;4.85;;;;;;;4.46;82.82;101834.91;8372946;28;20076;-54
2023/04/03 01:54:21;;;;;;;11.73;5.80;;;;;;;4.41;82.80;101828.88;8348676;28;20045;-54
2023/04/03 01:58:22;;;;;;;11.25;6.03;;;;;;;4.41;82.25;101829.75;8339271;28;20096;-52
2023/04/03 02:02:24;;;;;;;7.07;5.60;;;;;;;4.38;82.25;101834.38;8326631;28;20041;-55
2023/04/03 02:06:26;;;;;;;7.55;5.55;;;;;;;4.41;82.05;101828.88;8327407;28;20041;-54
2023/04/03 02:10:27;;;;;;;9.20;5.18;;;;;;;4.37;81.92;101832.66;8328379;28;20052;-54
2023/04/03 02:14:28;;;;;;;6.65;5.35;;;;;;;4.35;81.72;101829.16;8327109;28;20068;-58
2023/04/03 02:18:28;;;;;;;10.82;5.00;;;;;;;4.45;80.94;101842.06;8328555;28;20061;-58
2023/04/03 02:22:29;;;;;;;7.10;4.65;;;;;;;4.40;81.05;101837.84;8328151;28;20080;-58
2023/04/03 02:26:29;;;;;;;8.70;5.15;;;;;;;4.28;80.97;101843.75;8327214;28;20507;-58
2023/04/03 02:30:30;;;;;;;8.13;4.03;;;;;;;4.24;81.06;101832.31;8335853;28;20588;-58
2023/04/03 02:34:31;;;;;;;8.70;5.20;;;;;;;4.14;82.09;101840.84;8339387;28;20065;-58
2023/04/03 02:38:34;;;;;;;8.85;4.65;;;;;;;4.02;83.46;101837.75;8328005;28;20034;-54
2023/04/03 02:42:35;;;;;;;5.78;5.20;;;;;;;3.92;85.50;101828.41;8326872;28;20061;-53
2023/04/03 02:46:37;;;;;;;7.22;4.82;;;;;;;3.80;84.76;101849.44;8325933;28;20049;-53
2023/04/03 02:50:38;;;;;;;9.40;5.40;;;;;;;3.66;85.68;101849.19;8326707;28;20045;-53
2023/04/03 02:54:39;;;;;;;9.52;5.53;;;;;;;3.59;85.73;101848.56;8324953;28;20199;-52
2023/04/03 02:58:42;;;;;;;9.00;5.60;;;;;;;3.52;85.41;101847.09;8326738;28;20431;-53
2023/04/03 03:02:44;;;;;;;10.48;5.88;;;;;;;3.59;84.71;101843.22;8327165;28;20440;-53
2023/04/03 03:06:44;;;;;;;7.90;6.07;;;;;;;3.58;86.47;101851.28;8326464;28;20041;-52
2023/04/03 03:10:45;;;;;;;9.48;5.97;;;;;;;3.37;86.64;101855.72;8323814;28;20046;-54
2023/04/03 03:14:45;;;;;;;10.38;5.45;;;;;;;3.52;85.11;101847.09;8325739;28;20107;-54
2023/04/03 03:18:46;;;;;;;10.35;6.55;;;;;;;3.49;84.86;101847.22;8325574;28;20064;-53
2023/04/03 03:22:46;;;;;;;10.82;6.40;;;;;;;3.48;85.12;101850.78;8326199;28;20041;-54
2023/04/03 03:26:47;;;;;;;9.27;6.20;;;;;;;3.45;86.61;101847.41;8326135;28;20037;-53
2023/04/03 03:30:47;;;;;;;12.38;7.20;;;;;;;3.44;86.79;101849.19;8325167;28;20048;-52
2023/04/03 03:34:48;;;;;;;14.30;7.63;;;;;;;3.47;85.69;101845.50;8325038;28;20061;-53
2023/04/03 03:38:49;;;;;;;10.57;6.60;;;;;;;3.53;85.09;101847.94;8325634;28;20555;-54
2023/04/03 03:42:50;;;;;;;9.05;6.60;;;;;;;3.65;84.59;101842.94;8325397;28;20038;-53
2023/04/03 03:46:51;;;;;;;10.93;6.43;;;;;;;3.69;83.83;101849.06;8323875;28;20403;-53
2023/04/03 03:50:51;;;;;;;8.27;6.40;;;;;;;3.76;83.55;101843.34;8324672;28;20041;-54
2023/04/03 03:54:55;;;;;;;9.50;6.00;;;;;;;3.68;83.51;101852.63;8323605;28;20522;-53
2023/04/03 03:58:56;;;;;;;7.05;5.03;;;;;;;3.78;83.08;101854.84;8323516;28;20037;-54
2023/04/03 04:02:57;;;;;;;14.73;5.60;;;;;;;3.78;83.14;101852.19;8323422;28;20087;-53
2023/04/03 04:07:00;;;;;;;6.47;4.85;;;;;;;3.88;82.48;101850.84;8323365;28;20057;-54
2023/04/03 04:11:01;;;;;;;8.75;5.25;;;;;;;3.88;82.05;101850.84;8320312;28;20048;-53
2023/04/03 04:15:03;;;;;;;11.95;4.45;;;;;;;3.93;81.55;101851.53;8340532;28;20052;-52
2023/04/03 04:19:04;;;;;;;7.70;4.60;;;;;;;3.98;81.32;101851.34;8330528;28;20238;-54
2023/04/03 04:23:05;;;;;;;9.38;4.80;;;;;;;3.89;81.63;101857.09;8349513;28;20119;-52
2023/04/03 04:27:06;;;;;;;7.60;4.90;;;;;;;3.84;81.89;101857.28;8341445;28;20048;-54
2023/04/03 04:31:08;;;;;;;11.90;4.80;;;;;;;3.88;81.67;101866.06;8356546;28;20048;-53
2023/04/03 04:35:10;;;;;;;8.13;4.22;;;;;;;3.80;81.86;101858.34;8348016;28;20491;-53
2023/04/03 04:39:15;;;;;;;6.63;4.70;;;;;;;3.85;81.43;101861.69;8349113;28;20048;-54
2023/04/03 04:43:16;;;;;;;7.65;5.10;;;;;;;3.80;81.73;101869.06;8341173;28;20041;-54
2023/04/03 04:47:18;;;;;;;7.03;4.63;;;;;;;3.79;81.86;101872.63;8324050;28;20033;-59
2023/04/03 04:51:19;;;;;;;8.35;4.22;;;;;;;3.74;81.88;101873.78;8322831;28;20045;-57
2023/04/03 04:55:20;;;;;;;10.40;3.65;;;;;;;3.72;81.96;101876.50;8324114;28;20077;-58
2023/04/03 04:59:21;;;;;;;8.02;4.13;;;;;;;3.70;81.80;101883.75;8323598;28;20049;-58
2023/04/03 05:03:22;;;;;;;6.53;3.85;;;;;;;3.65;82.45;101893.75;8323850;28;20107;-59
2023/04/03 05:07:24;;;;;;;11.70;4.35;;;;;;;3.49;83.03;101900.66;8323932;28;20049;-58
2023/04/03 05:11:26;;;;;;;5.70;4.00;;;;;;;3.29;84.06;101892.56;8323341;28;20056;-59
2023/04/03 05:15:27;;;;;;;8.13;4.30;;;;;;;3.22;84.62;101899.09;8321967;28;20038;-58
2023/04/03 05:19:28;;;;;;;6.18;3.92;;;;;;;3.24;84.98;101905.25;8322330;28;20537;-59
2023/04/03 05:23:29;;;;;;;5.38;4.32;;;;;;;3.35;84.50;101908.38;8320726;28;20499;-59
2023/04/03 05:27:32;;;;;;;5.90;4.07;;;;;;;3.51;83.95;101908.63;8292048;28;20574;-59
2023/04/03 05:31:33;;;;;;;6.93;4.18;;;;;;;3.69;83.28;101914.09;8308705;28;20328;-59
2023/04/03 05:35:40;;;;;;;8.48;3.92;;;;;;;3.70;82.87;101912.28;8293978;28;20489;-54
2023/04/03 05:39:41;;;;;;;5.70;3.60;;;;;;;3.85;82.03;101917.84;8307490;28;20514;-53
2023/04/03 05:43:43;;;;;;;10.50;4.40;;;;;;;3.99;81.78;101923.50;8312264;28;20035;-54
2023/04/03 05:47:44;;;;;;;7.47;3.90;;;;;;;4.09;81.17;101927.53;8323309;28;20506;-54
2023/04/03 05:51:45;;;;;;;7.18;3.40;;;;;;;4.21;80.31;101938.66;8324769;28;20415;-54
2023/04/03 05:55:53;;;;;;;10.75;3.70;;;;;;;4.31;80.05;101934.63;8319555;28;20400;-52
2023/04/03 05:59:54;;;;;;;6.05;3.88;;;;;;;4.45;79.79;101932.25;8321913;28;20033;-52
2023/04/03 06:03:58;;;;;;;7.97;2.80;;;;;;;4.58;79.28;101934.31;8325694;28;20076;-54
2023/04/03 06:07:59;;;;;;;6.43;3.25;;;;;;;4.73;78.70;101943.47;8324706;28;20041;-53
2023/04/03 06:12:00;;;;;;;7.15;3.25;;;;;;;4.84;78.09;101941.16;8319396;28;20492;-54
2023/04/03 06:16:02;;;;;;;7.18;3.22;;;;;;;4.92;77.76;101937.22;8317474;28;20036;-54
2023/04/03 06:20:04;;;;;;;6.32;2.88;;;;;;;5.08;77.16;101943.59;8322352;28;20045;-53
2023/04/03 06:24:06;;;;;;;7.43;3.15;;;;;;;5.18;77.56;101952.94;8316329;28;20037;-54
2023/04/03 06:28:09;;;;;;;12.73;3.30;;;;;;;5.38;76.25;101957.38;8327126;28;20038;-54
2023/04/03 06:32:10;;;;;;;7.70;3.13;;;;;;;5.53;75.78;101949.47;8327743;28;20092;-54
2023/04/03 06:36:11;;;;;;;7.50;3.05;;;;;;;5.74;75.58;101951.09;8322949;28;20065;-54
2023/04/03 06:40:20;;;;;;;7.90;3.40;;;;;;;5.99;75.63;101942.75;8319620;28;20042;-54
2023/04/03 06:44:20;;;;;;;4.63;2.50;;;;;;;6.19;73.89;101950.63;8323321;28;20057;-55
2023/04/03 06:48:21;;;;;;;6.10;3.65;;;;;;;6.17;73.90;101957.94;8323877;28;20033;-55
2023/04/03 06:52:22;;;;;;;4.78;2.05;;;;;;;6.33;73.32;101955.31;8331671;28;20366;-55
2023/04/03 06:56:23;;;;;;;8.88;3.00;;;;;;;6.35;73.08;101948.94;8311031;28;20459;-53
2023/04/03 07:00:24;;;;;;;8.25;2.97;;;;;;;6.50;72.35;101950.84;8305106;28;20526;-53
2023/04/03 07:04:25;;;;;;;6.15;2.50;;;;;;;6.48;71.62;101963.47;8302388;28;20580;-54
2023/04/03 07:08:25;;;;;;;6.40;3.00;;;;;;;6.41;71.51;101945.06;8302998;28;20412;-54
2023/04/03 07:12:26;;;;;;;7.38;3.10;;;;;;;6.68;73.57;101955.22;8309728;28;20053;-54
2023/04/03 07:16:26;;;;;;;5.68;2.78;;;;;;;6.78;70.76;101948.41;8318160;28;20037;-54
2023/04/03 07:20:27;;;;;;;5.30;2.55;;;;;;;6.87;70.34;101960.50;8327677;28;20037;-54
2023/04/03 07:24:28;;;;;;;6.18;2.25;;;;;;;6.98;69.74;101961.66;8315799;28;20107;-54
2023/04/03 07:28:29;;;;;;;6.90;3.15;;;;;;;7.37;70.02;101962.16;8321523;28;20420;-54
2023/04/03 07:32:30;;;;;;;8.10;2.50;;;;;;;7.31;67.99;101962.50;8310219;28;20068;-55
2023/04/03 07:36:33;;;;;;;8.07;2.55;;;;;;;7.50;69.27;101968.59;8312730;28;20046;-54
2023/04/03 07:40:34;;;;;;;7.68;2.45;;;;;;;7.56;67.38;101973.63;8313540;28;20387;-55
2023/04/03 07:44:35;;;;;;;5.07;2.13;;;;;;;7.78;69.34;101967.91;8303160;28;20044;-54
2023/04/03 07:48:35;;;;;;;10.65;2.45;;;;;;;7.72;66.63;101963.72;8347257;28;20041;-53
2023/04/03 07:52:36;;;;;;;4.35;2.50;;;;;;;7.93;68.54;101973.28;8306928;28;20056;-54
2023/04/03 07:56:36;;;;;;;9.02;3.08;;;;;;;8.06;68.25;101974.28;8311269;28;20056;-54
2023/04/03 08:00:38;;;;;;;5.47;2.25;;;;;;;7.95;66.07;101975.88;8304024;28;20048;-55
2023/04/03 08:04:38;;;;;;;3.22;2.05;;;;;;;8.07;66.29;101980.56;8317303;28;20124;-54
2023/04/03 08:08:39;;;;;;;8.32;2.28;;;;;;;8.27;67.06;101985.69;8317649;28;20049;-54
2023/04/03 08:12:39;;;;;;;3.85;1.75;;;;;;;8.12;64.24;101980.28;8316925;28;20559;-54
2023/04/03 08:16:40;;;;;;;5.25;2.00;;;;;;;8.11;64.45;101982.09;8315588;28;20041;-54
2023/04/03 08:20:41;;;;;;;6.97;1.98;;;;;;;8.16;64.20;101979.16;8289097;28;20076;-54
2023/04/03 08:24:41;;;;;;;5.15;1.75;;;;;;;8.43;64.89;101977.56;8309601;28;20033;-54
2023/04/03 08:28:42;;;;;;;6.40;1.98;;;;;;;8.57;63.70;101985.69;8306630;28;20048;-54
2023/04/03 08:32:43;;;;;;;4.53;1.83;;;;;;;8.37;63.40;101988.69;8311599;28;20492;-54
2023/04/03 08:36:44;;;;;;;4.32;1.80;;;;;;;8.41;62.79;101984.84;8314542;28;20064;-55
2023/04/03 08:40:45;;;;;;;5.18;2.20;;;;;;;8.47;62.70;101979.09;8315904;28;20491;-55
2023/04/03 08:44:58;;;;;;;7.05;1.70;;;;;;;8.54;63.60;101989.44;8315394;28;20100;-55
2023/04/03 08:48:59;;;;;;;4.78;1.92;;;;;;;8.51;60.53;101991.47;8317139;28;20273;-54
2023/04/03 08:53:03;;;;;;;5.88;1.70;;;;;;;8.81;61.46;101978.84;8317158;28;20440;-54
2023/04/03 08:57:06;;;;;;;9.05;2.00;;;;;;;8.70;60.98;101982.19;8317394;28;20495;-54
2023/04/03 09:01:18;;;;;;;3.58;1.52;;;;;;;8.99;61.25;101983.06;8314887;28;20423;-54
2023/04/03 09:09:50;;;;;;;4.63;1.55;;;;;;;9.49;60.80;101983.47;8396024;27;20394;-53
2023/04/03 09:14:02;;;;;;;5.72;1.40;;;;;;;9.30;58.46;101985.63;8370785;27;20461;-54
2023/04/03 09:18:16;;;;;;;3.90;1.77;;;;;;;9.41;58.60;101992.06;8381931;27;20044;-53
2023/04/03 09:22:25;;;;;;;6.88;1.92;;;;;;;9.43;58.74;101994.66;8403102;27;20473;-53
2023/04/03 09:26:33;;;;;;;5.32;1.20;;;;;;;9.53;59.62;102001.19;8400613;27;20044;-53
2023/04/03 09:30:34;;;;;;;5.40;1.67;;;;;;;9.64;57.51;101999.53;8391647;27;20323;-53
2023/04/03 09:34:36;;;;;;;7.07;1.67;;;;;;;9.86;57.66;101999.03;8394594;27;20044;-53
2023/04/03 09:38:37;;;;;;;5.03;1.52;;;;;;;11.42;53.89;101988.16;8394818;28;20032;-53
2023/04/03 09:42:41;;;;;;;5.55;1.23;;;;;;;12.40;50.45;101983.53;8399108;28;20111;-53
2023/04/03 09:46:41;;;;;;;6.15;1.20;;;;;;;13.16;48.61;101989.31;8342468;28;20049;-53
2023/04/03 09:50:56;;;;;;;4.15;1.05;;;;;;;13.69;47.68;101977.72;8372654;28;20036;-53
2023/04/03 09:55:07;;;;;;;6.10;1.00;;;;;;;13.91;47.92;101988.59;8393203;27;20086;-53
2023/04/03 09:59:15;;;;;;;4.38;1.27;;;;;;;14.54;46.88;101966.91;8391869;28;20033;-53
2023/04/03 10:03:36;;;;;;;3.92;1.10;;;;;;;14.69;45.20;101965.59;8410962;28;20036;-53
2023/04/03 10:07:37;;;;;;;3.28;1.08;;;;;;;14.17;45.80;101973.69;8408834;28;20312;-53
2023/04/03 10:11:59;;;;;;;1.92;1.00;;;;;;;14.27;45.64;101963.78;8408920;28;20511;-53
2023/04/03 10:16:12;;;;;;;2.13;0.93;;;;;;;14.31;45.60;101976.16;8378347;28;20052;-53
2023/04/03 10:20:43;;;;;;;2.80;1.00;;;;;;;14.48;44.35;101964.69;8382888;28;20109;-53
2023/04/03 10:24:53;;;;;;;4.53;0.90;;;;;;;14.28;44.46;101970.97;8352566;28;20056;-54
2023/04/03 10:29:08;;;;;;;3.10;0.98;;;;;;;14.88;43.57;101963.00;8387955;28;20489;-53
2023/04/03 10:33:33;;;;;;;3.63;1.10;;;;;;;15.44;42.94;101953.44;8382761;28;20044;-53
2023/04/03 10:38:00;;;;;;;2.58;1.10;;;;;;;15.40;41.63;101952.00;8353802;28;20037;-53
2023/04/03 10:42:40;;;;;;;1.75;0.90;;;;;;;14.82;43.11;101949.91;8387241;28;20037;-54
2023/04/03 10:46:52;;;;;;;4.68;1.25;;;;;;;15.03;43.29;101947.16;8333569;28;20088;-54
2023/04/03 10:51:18;;;;;;;2.53;0.82;;;;;;;15.59;42.03;101951.22;8348604;28;20045;-55
2023/04/03 10:55:45;;;;;;;2.63;1.05;;;;;;;15.39;40.33;101957.59;8378622;28;20121;-54
2023/04/03 10:59:50;;;;;;;1.90;0.95;;;;;;;16.30;40.61;101941.91;8353041;28;20526;-54
2023/04/03 11:03:57;;;;;;;3.03;0.77;;;;;;;15.32;41.17;101946.34;8354049;28;20098;-54
2023/04/03 11:08:04;;;;;;;1.30;0.75;;;;;;;16.04;43.57;101935.28;8365547;28;20045;-53
2023/04/03 11:12:15;;;;;;;4.50;0.98;;;;;;;16.76;42.52;101928.41;8368009;28;20100;-54
2023/04/03 11:16:23;;;;;;;2.92;0.70;;;;;;;16.86;38.18;101923.78;8370712;28;20028;-54
2023/04/03 11:20:28;;;;;;;3.35;0.80;;;;;;;16.24;38.85;101920.63;8387264;28;20079;-54
2023/04/03 11:24:33;;;;;;;3.75;0.82;;;;;;;16.18;40.52;101926.66;8370041;28;20421;-54
2023/04/03 11:28:33;;;;;;;;;;;;;;;16.60;38.83;101919.94;8384447;28;20132;-54
2023/04/03 11:36:50;;;;;;;5.53;1.23;;;;;;;16.31;38.89;101905.44;8360096;27;20156;-53
2023/04/03 11:40:51;;;;;;;3.88;0.90;;;;;;;17.47;36.86;101897.72;8346736;28;20033;-54
2023/04/03 11:45:17;;;;;;;2.08;0.90;;;;;;;16.85;36.53;101892.88;8342530;28;20112;-54
2023/04/03 11:49:59;;;;;;;1.15;0.68;;;;;;;15.69;35.36;101890.28;8343417;28;20033;-54
2023/04/03 11:54:39;;;;;;;2.40;0.63;;;;;;;17.18;36.19;101881.44;8344055;28;20050;-54
2023/04/03 11:58:40;;;;;;;2.50;0.75;;;;;;;16.38;36.76;101884.72;8341412;28;20064;-55
2023/04/03 12:02:41;;;;;;;2.45;1.08;;;;;;;16.76;36.86;101877.38;8344945;28;20519;-54
2023/04/03 12:15:45;;;;;;;3.20;0.73;;;;;;;16.94;36.67;101861.06;8355215;27;20411;-53
2023/04/03 12:19:47;;;;;;;3.15;1.05;;;;;;;16.99;34.88;101862.34;8300954;28;20046;-53
2023/04/03 12:24:10;;;;;;;2.35;0.70;;;;;;;17.00;35.98;101863.22;8318524;28;20399;-53
2023/04/03 12:28:11;;;;;;;2.38;0.70;;;;;;;16.56;36.48;101862.03;8344523;28;20187;-54
2023/04/03 12:32:51;;;;;;;5.53;1.00;;;;;;;15.00;38.82;101855.69;8344286;28;20056;-53
2023/04/03 12:37:03;;;;;;;1.73;0.88;;;;;;;13.73;39.57;101851.47;8328503;28;20122;-53
2023/04/03 12:41:27;;;;;;;2.20;0.70;;;;;;;12.52;40.24;101841.50;8341351;28;20043;-53
2023/04/03 12:45:28;;;;;;;2.70;1.00;;;;;;;12.76;41.70;101844.13;8349962;28;20144;-53
2023/04/03 12:53:42;;;;;;;1.75;0.77;;;;;;;11.76;43.51;101830.31;8346543;27;20396;-52
2023/04/03 12:57:43;;;;;;;2.45;0.70;;;;;;;11.46;43.37;101835.28;8335726;28;20033;-52
2023/04/03 13:01:53;;;;;;;4.30;0.90;;;;;;;11.46;43.75;101838.00;8330679;28;20057;-52
2023/04/03 13:05:59;;;;;;;3.42;0.98;;;;;;;11.74;45.18;101837.69;8313606;28;20203;-53
2023/04/03 13:10:04;;;;;;;2.90;0.68;;;;;;;11.48;43.50;101825.22;8325600;28;20037;-51
2023/04/03 13:14:15;;;;;;;1.25;0.70;;;;;;;11.45;43.07;101828.16;8328676;28;20046;-54
2023/04/03 13:18:34;;;;;;;1.85;0.70;;;;;;;11.70;45.04;101830.78;8344336;28;20419;-53
2023/04/03 13:22:43;;;;;;;3.15;0.88;;;;;;;11.84;42.16;101800.78;8306936;28;20084;-52
2023/04/03 13:26:43;;;;;;;4.80;1.10;;;;;;;11.64;42.79;101803.28;8327878;28;20033;-53
2023/04/03 13:31:05;;;;;;;1.35;0.80;;;;;;;11.66;43.10;101795.91;8300540;28;20532;-53
2023/04/03 13:35:27;;;;;;;2.65;0.85;;;;;;;11.84;42.83;101789.94;8316531;28;20045;-53
2023/04/03 13:39:31;;;;;;;5.80;1.08;;;;;;;11.64;43.77;101793.31;8335806;28;20256;-52
2023/04/03 13:43:35;;;;;;;1.52;0.60;;;;;;;11.50;42.57;101796.16;8327262;28;20404;-52
2023/04/03 13:47:39;;;;;;;2.40;0.88;;;;;;;11.78;43.89;101792.25;8312063;28;20088;-58
2023/04/03 13:51:40;;;;;;;5.30;1.10;;;;;;;12.01;42.52;101787.78;8311166;28;20046;-58
2023/04/03 13:56:00;;;;;;;2.28;0.80;;;;;;;11.89;44.14;101781.44;8336838;28;20067;-57
2023/04/03 14:00:20;;;;;;;5.25;1.00;;;;;;;11.47;43.01;101779.28;8343124;28;20083;-54
2023/04/03 14:04:25;;;;;;;2.90;0.75;;;;;;;11.40;43.46;101769.88;8306912;28;20041;-53
2023/04/03 14:08:27;;;;;;;5.35;1.10;;;;;;;11.71;44.46;101767.47;8286016;28;20037;-54
2023/04/03 14:12:33;;;;;;;2.65;0.90;;;;;;;11.59;43.05;101762.94;8287284;28;20046;-54
2023/04/03 14:16:40;;;;;;;2.00;0.98;;;;;;;11.60;44.73;101772.84;8289339;28;20215;-55
2023/04/03 14:20:41;;;;;;;2.88;0.70;;;;;;;11.44;41.61;101763.28;8303575;28;20053;-54
2023/04/03 14:24:43;;;;;;;2.35;0.70;;;;;;;11.61;42.03;101755.59;8289459;28;20189;-53
2023/04/03 14:28:46;;;;;;;4.30;1.27;;;;;;;11.57;41.85;101754.09;8320167;28;20464;-54
2023/04/03 14:32:48;;;;;;;4.45;0.93;;;;;;;11.68;43.24;101751.44;8322928;28;20060;-53
2023/04/03 14:36:48;;;;;;;2.92;0.98;;;;;;;11.54;41.64;101743.50;8320483;28;20034;-52
2023/04/03 14:40:49;;;;;;;3.60;0.95;;;;;;;11.51;42.27;101746.44;8309398;28;20057;-53
2023/04/03 14:44:50;;;;;;;3.05;0.85;;;;;;;11.43;42.34;101729.03;8309054;28;20355;-55
2023/04/03 14:48:50;;;;;;;4.65;0.90;;;;;;;11.56;44.26;101736.09;8321662;28;20037;-54
2023/04/03 14:52:54;;;;;;;1.75;0.70;;;;;;;11.45;42.52;101740.63;8302622;28;20390;-53
2023/04/03 14:56:56;;;;;;;3.47;0.88;;;;;;;11.47;42.91;101741.38;8301218;28;20733;-53
2023/04/03 15:00:57;;;;;;;2.80;1.10;;;;;;;11.49;43.12;101732.13;8287272;28;20041;-53
2023/04/03 15:04:59;;;;;;;2.28;0.90;;;;;;;11.50;42.70;101724.91;8262536;28;20049;-54
2023/04/03 15:09:00;;;;;;;7.65;1.17;;;;;;;11.33;42.85;101728.88;8255253;28;20073;-53
2023/04/03 15:13:00;;;;;;;2.90;1.08;;;;;;;11.36;42.80;101715.09;8281581;28;20108;-53
2023/04/03 15:17:01;;;;;;;6.65;0.82;;;;;;;11.67;44.51;101710.94;8283842;28;20038;-58
2023/04/03 15:21:02;;;;;;;3.72;1.10;;;;;;;11.68;44.30;101712.66;8286866;28;20057;-58
2023/04/03 15:25:09;;;;;;;1.98;0.80;;;;;;;11.55;44.08;101710.00;8269799;28;20038;-58
2023/04/03 15:29:10;;;;;;;2.35;0.90;;;;;;;11.62;45.24;101707.72;8255773;28;20058;-59
2023/04/03 15:33:10;;;;;;;5.90;1.20;;;;;;;11.62;45.30;101710.44;8276366;28;20095;-58
2023/04/03 15:37:11;;;;;;;4.30;1.17;;;;;;;11.67;45.46;101705.50;8258062;28;20035;-53
2023/04/03 15:41:12;;;;;;;6.75;1.27;;;;;;;11.55;45.67;101707.31;8255738;28;20552;-53
2023/04/03 15:45:12;;;;;;;5.75;1.10;;;;;;;11.38;44.86;101713.13;8282086;28;20117;-54
2023/04/03 15:49:13;;;;;;;2.92;1.02;;;;;;;11.39;44.93;101712.16;8287002;28;20180;-51
2023/04/03 15:53:13;;;;;;;2.70;1.20;;;;;;;11.40;46.38;101711.19;8284556;28;20053;-54
2023/04/03 15:57:14;;;;;;;3.20;1.30;;;;;;;11.42;45.70;101706.53;8287843;28;20381;-53
2023/04/03 16:01:15;;;;;;;3.63;1.00;;;;;;;11.45;46.50;101711.69;8287329;28;20038;-53
2023/04/03 16:05:17;;;;;;;2.60;0.82;;;;;;;11.51;46.63;101711.22;8286617;28;20124;-53
2023/04/03 16:09:17;;;;;;;5.68;1.25;;;;;;;11.41;45.69;101709.34;8284667;28;20069;-53
2023/04/03 16:13:18;;;;;;;2.00;1.02;;;;;;;11.43;45.48;101713.66;8285257;28;20034;-54
2023/04/03 16:17:18;;;;;;;5.97;1.40;;;;;;;11.32;44.15;101715.47;8271106;28;20045;-54
2023/04/03 16:21:19;;;;;;;3.65;1.20;;;;;;;11.28;46.57;101714.81;8261416;28;20038;-54
2023/04/03 16:25:20;;;;;;;3.75;0.77;;;;;;;11.14;46.27;101706.88;8282935;28;20426;-56
2023/04/03 16:29:20;;;;;;;3.72;0.80;;;;;;;11.02;46.55;101706.94;8283284;28;20064;-54
2023/04/03 16:33:21;;;;;;;2.67;0.85;;;;;;;10.98;45.66;101722.50;8284442;28;20316;-54
2023/04/03 16:37:22;;;;;;;4.10;1.15;;;;;;;10.99;46.65;101726.97;8285175;28;20504;-53
2023/04/03 16:41:22;;;;;;;5.05;1.10;;;;;;;11.03;46.91;101731.16;8257797;28;20473;-54
2023/04/03 16:45:23;;;;;;;2.42;0.93;;;;;;;11.05;48.44;101728.34;8279519;28;20045;-53
2023/04/03 16:49:23;;;;;;;2.72;1.35;;;;;;;10.95;46.97;101733.56;8282539;28;20041;-54
2023/04/03 16:53:25;;;;;;;2.08;1.00;;;;;;;10.86;46.58;101730.69;8288023;28;20120;-54
2023/04/03 16:57:26;;;;;;;1.67;1.08;;;;;;;10.79;47.57;101727.56;8293647;28;20408;-54
2023/04/03 17:01:26;;;;;;;1.90;0.65;;;;;;;10.87;48.07;101725.16;8285427;28;20487;-53
2023/04/03 17:05:26;;;;;;;2.20;1.10;;;;;;;10.81;47.63;101731.03;8283334;28;20439;-54
2023/04/03 17:09:27;;;;;;;4.13;0.90;;;;;;;10.70;48.38;101733.63;8287266;28;20492;-53
2023/04/03 17:13:31;;;;;;;4.45;1.27;;;;;;;10.64;47.90;101742.19;8291318;28;20067;-54
2023/04/03 17:17:31;;;;;;;2.15;1.10;;;;;;;10.48;47.86;101743.41;8288085;28;20034;-54
2023/04/03 17:21:33;;;;;;;11.75;1.00;;;;;;;10.46;48.31;101750.78;8285417;28;20050;-53
2023/04/03 17:25:33;;;;;;;5.35;1.02;;;;;;;10.39;48.17;101744.94;8270449;28;20335;-53
2023/04/03 17:29:34;;;;;;;3.15;0.93;;;;;;;10.33;48.42;101745.38;8283260;28;20041;-54
2023/04/03 17:33:34;;;;;;;2.03;1.05;;;;;;;10.32;48.76;101749.06;8284270;28;20034;-53
2023/04/03 17:37:35;;;;;;;4.53;1.05;;;;;;;10.21;49.54;101748.94;8282061;28;20038;-53
2023/04/03 17:41:35;;;;;;;4.10;1.20;;;;;;;10.10;49.97;101754.25;8284358;28;20054;-54
2023/04/03 17:45:37;;;;;;;4.22;1.42;;;;;;;10.06;49.60;101746.44;8288084;28;20038;-52
2023/04/03 17:49:37;;;;;;;4.65;0.90;;;;;;;10.01;49.88;101754.88;8296930;28;20045;-53
2023/04/03 17:53:39;;;;;;;4.30;1.10;;;;;;;9.89;50.04;101756.56;8287964;28;20042;-54
2023/04/03 17:57:39;;;;;;;2.45;1.17;;;;;;;9.81;49.69;101752.66;8290072;28;20465;-54
2023/04/03 18:01:43;;;;;;;3.78;1.08;;;;;;;9.71;50.34;101748.88;8290671;28;20045;-53
2023/04/03 18:05:44;;;;;;;3.50;1.17;;;;;;;9.63;50.17;101762.03;8290510;28;20161;-58
2023/04/03 18:09:46;;;;;;;4.22;1.00;;;;;;;9.54;50.06;101754.53;8290027;28;20273;-58
2023/04/03 18:13:46;;;;;;;2.90;1.20;;;;;;;9.44;50.60;101758.84;8291135;28;20042;-57
2023/04/03 18:17:49;;;;;;;5.50;1.10;;;;;;;9.36;50.25;101761.19;8288415;28;20042;-57
2023/04/03 18:21:53;;;;;;;4.50;1.42;;;;;;;9.31;50.59;101768.75;8290744;28;20120;-54
2023/04/03 18:25:54;;;;;;;4.20;1.20;;;;;;;9.29;50.02;101765.25;8289986;28;20065;-57
2023/04/03 18:30:00;;;;;;;4.00;1.00;;;;;;;9.20;50.51;101765.88;8289797;28;20061;-58
2023/04/03 18:34:00;;;;;;;3.25;1.05;;;;;;;9.19;50.58;101767.72;8289882;28;20088;-57
2023/04/03 18:38:01;;;;;;;8.80;1.60;;;;;;;9.06;51.15;101769.47;8289672;28;20077;-58
2023/04/03 18:42:08;;;;;;;12.10;1.20;;;;;;;9.07;51.13;101770.34;8288552;28;20042;-54
2023/04/03 18:46:09;;;;;;;5.43;1.30;;;;;;;8.92;51.39;101774.03;8265409;28;20246;-52
2023/04/03 18:50:10;;;;;;;10.07;1.65;;;;;;;8.80;51.70;101785.63;8288333;28;20074;-53
2023/04/03 18:54:11;;;;;;;5.55;1.60;;;;;;;8.73;52.53;101789.69;8301558;28;20044;-54
2023/04/03 18:58:11;;;;;;;2.72;1.48;;;;;;;8.68;52.58;101789.09;8316838;28;20038;-52
2023/04/03 19:02:13;;;;;;;4.00;1.40;;;;;;;8.67;52.57;101798.16;8289656;28;20107;-53
2023/04/03 19:06:13;;;;;;;4.05;1.08;;;;;;;8.59;53.15;101805.84;8283099;28;20033;-53
2023/04/03 19:10:16;;;;;;;5.25;1.20;;;;;;;8.59;52.71;101806.72;8288637;28;20030;-54
2023/04/03 19:14:17;;;;;;;2.22;1.10;;;;;;;8.48;53.69;101811.91;8289143;28;20117;-54
2023/04/03 19:18:17;;;;;;;4.85;1.50;;;;;;;8.30;53.51;101809.50;8307006;28;20037;-54
2023/04/03 19:22:18;;;;;;;2.58;1.30;;;;;;;8.32;53.71;101823.75;8305977;28;20122;-53
2023/04/03 19:26:20;;;;;;;4.18;1.25;;;;;;;8.27;53.78;101817.78;8275685;28;20045;-54